createdAt,value
2019-01-04T00:01:42.552Z,103239.64
2019-01-04T00:04:20.142Z,103239.20
2019-01-04T00:06:50.623Z,103243.63
2019-01-04T00:09:20.986Z,103245.00
2019-01-04T00:11:51.445Z,103243.80
2019-01-04T00:14:21.994Z,103237.84
2019-01-04T00:16:52.428Z,103242.81
2019-01-04T00:19:22.771Z,103240.95
2019-01-04T00:21:53.800Z,103238.65
2019-01-04T00:24:24.515Z,103240.09
2019-01-04T00:26:54.986Z,103239.02
2019-01-04T00:29:25.431Z,103237.98
2019-01-04T00:31:55.849Z,103239.62
2019-01-04T00:34:26.283Z,103237.90
2019-01-04T00:36:57.000Z,103248.67
2019-01-04T00:39:27.688Z,103254.91
2019-01-04T00:41:58.146Z,103247.14
2019-01-04T00:44:28.864Z,103252.53
2019-01-04T00:46:59.848Z,103258.48
2019-01-04T00:49:30.354Z,103256.05
2019-01-04T00:52:01.109Z,103256.77
2019-01-04T00:54:31.578Z,103252.16
2019-01-04T00:57:31.059Z,103253.16
2019-01-04T01:01:06.614Z,103249.48
2019-01-04T01:04:29.237Z,103251.66
2019-01-04T01:08:00.081Z,103248.28
2019-01-04T01:11:44.434Z,103247.58
2019-01-04T01:15:44.489Z,103249.58
2019-01-04T01:19:10.299Z,103245.32
2019-01-04T01:26:19.124Z,103245.16
2019-01-04T01:29:20.620Z,103240.45
2019-01-04T01:32:48.583Z,103240.86
2019-01-04T01:35:33.868Z,103247.37
2019-01-04T01:39:01.836Z,103252.17
2019-01-04T01:42:03.296Z,103244.58
2019-01-04T01:45:31.057Z,103240.59
2019-01-04T01:48:35.325Z,103246.67
2019-01-04T01:51:49.036Z,103258.48
2019-01-04T01:54:31.018Z,103263.36
2019-01-04T01:57:20.603Z,103269.89
2019-01-04T02:00:03.010Z,103272.55
2019-01-04T02:02:52.580Z,103267.98
2019-01-04T02:05:35.193Z,103270.95
2019-01-04T02:08:17.293Z,103262.70
2019-01-04T02:10:48.069Z,103259.86
2019-01-04T02:13:37.933Z,103263.28
2019-01-04T02:16:20.140Z,103272.38
2019-01-04T02:19:09.180Z,103275.92
2019-01-04T02:21:50.712Z,103271.66
2019-01-04T02:24:21.141Z,103277.21
2019-01-04T02:26:51.738Z,103272.36
2019-01-04T02:29:22.166Z,103274.27
2019-01-04T02:31:52.557Z,103270.27
2019-01-04T02:34:22.970Z,103273.38
2019-01-04T02:36:53.463Z,103276.04
2019-01-04T02:39:23.872Z,103266.20
2019-01-04T02:41:54.376Z,103259.17
2019-01-04T02:44:24.743Z,103248.38
2019-01-04T02:46:55.351Z,103244.17
2019-01-04T02:49:25.948Z,103250.41
2019-01-04T02:51:56.603Z,103248.28
2019-01-04T02:54:26.818Z,103258.25
2019-01-04T02:56:57.168Z,103259.00
2019-01-04T02:59:27.444Z,103259.80
2019-01-04T03:01:58.006Z,103254.89
2019-01-04T03:04:28.214Z,103249.96
2019-01-04T03:06:58.502Z,103252.69
2019-01-04T03:09:28.956Z,103246.41
2019-01-04T03:11:59.320Z,103257.70
2019-01-04T03:14:29.986Z,103254.05
2019-01-04T03:17:00.389Z,103251.29
2019-01-04T03:19:30.835Z,103248.20
2019-01-04T03:22:01.312Z,103245.16
2019-01-04T03:24:32.049Z,103252.06
2019-01-04T03:27:02.407Z,103252.06
2019-01-04T03:29:32.936Z,103246.28
2019-01-04T03:32:03.270Z,103243.86
2019-01-04T03:34:33.993Z,103248.66
2019-01-04T03:37:04.833Z,103243.91
2019-01-04T03:39:35.451Z,103241.69
2019-01-04T03:42:05.919Z,103238.17
2019-01-04T03:44:36.472Z,103233.03
2019-01-04T03:47:07.369Z,103235.11
2019-01-04T03:49:38.007Z,103235.66
2019-01-04T03:52:08.597Z,103242.48
2019-01-04T03:54:39.005Z,103235.74
2019-01-04T03:57:09.354Z,103233.63
2019-01-04T03:59:39.657Z,103229.77
2019-01-04T04:02:10.291Z,103222.05
2019-01-04T04:04:40.619Z,103228.88
2019-01-04T04:07:10.947Z,103223.37
2019-01-04T04:09:41.250Z,103224.95
2019-01-04T04:12:11.686Z,103220.55
2019-01-04T04:14:42.066Z,103208.05
2019-01-04T04:17:12.773Z,103214.88
2019-01-04T04:19:43.194Z,103215.27
2019-01-04T04:22:13.567Z,103213.19
2019-01-04T04:24:43.992Z,103216.30
2019-01-04T04:27:14.448Z,103218.58
2019-01-04T04:29:44.943Z,103205.45
2019-01-04T04:32:15.469Z,103199.08
2019-01-04T04:34:47.096Z,103200.06
2019-01-04T04:37:17.341Z,103198.27
2019-01-04T04:40:06.980Z,103199.80
2019-01-04T04:42:56.407Z,103207.52
2019-01-04T04:45:38.683Z,103208.50
2019-01-04T04:48:28.109Z,103210.67
2019-01-04T04:51:10.393Z,103213.25
2019-01-04T04:54:00.450Z,103204.73
2019-01-04T04:56:40.965Z,103209.17
2019-01-04T04:59:30.796Z,103210.81
2019-01-04T05:02:01.197Z,103211.75
2019-01-04T05:04:31.550Z,103213.57
2019-01-04T05:07:02.222Z,103214.50
2019-01-04T05:09:32.452Z,103201.48
2019-01-04T05:12:02.807Z,103201.34
2019-01-04T05:14:33.440Z,103201.34
2019-01-04T05:17:03.809Z,103200.94
2019-01-04T05:19:53.601Z,103201.42
2019-01-04T05:22:35.652Z,103196.46
2019-01-04T05:25:25.407Z,103190.13
2019-01-04T05:28:07.726Z,103184.88
2019-01-04T05:30:57.350Z,103195.22
2019-01-04T05:33:39.815Z,103195.76
2019-01-04T05:39:35.987Z,103210.49
2019-01-04T05:45:26.856Z,103210.84
2019-01-04T05:48:09.224Z,103207.52
2019-01-04T05:50:58.742Z,103207.47
2019-01-04T05:53:40.906Z,103211.91
2019-01-04T05:59:18.308Z,103210.09
2019-01-04T06:02:08.001Z,103211.20
2019-01-04T06:04:50.254Z,103201.79
2019-01-04T06:07:40.369Z,103192.66
2019-01-04T06:10:23.288Z,103192.66
2019-01-04T06:13:12.890Z,103189.37
2019-01-04T06:15:55.724Z,103184.36
2019-01-04T06:18:25.995Z,103179.79
2019-01-04T06:20:56.258Z,103181.30
2019-01-04T06:23:26.624Z,103177.17
2019-01-04T06:25:56.956Z,103185.23
2019-01-04T06:28:27.274Z,103180.72
2019-01-04T06:30:57.739Z,103180.38
2019-01-04T06:33:28.074Z,103189.46
2019-01-04T06:35:58.470Z,103187.52
2019-01-04T06:38:28.855Z,103182.45
2019-01-04T06:40:59.283Z,103174.06
2019-01-04T06:43:30.034Z,103157.20
2019-01-04T06:46:00.700Z,103159.10
2019-01-04T06:48:31.094Z,103159.45
2019-01-04T06:51:01.822Z,103158.80
2019-01-04T06:53:32.258Z,103146.85
2019-01-04T06:56:04.206Z,103146.05
2019-01-04T06:58:34.524Z,103158.56
2019-01-04T07:01:04.984Z,103175.08
2019-01-04T07:03:35.433Z,103172.95
2019-01-04T07:06:05.888Z,103176.45
2019-01-04T07:08:36.286Z,103177.29
2019-01-04T07:11:06.833Z,103175.65
2019-01-04T07:13:37.306Z,103174.18
2019-01-04T07:16:07.736Z,103179.73
2019-01-04T07:18:38.524Z,103182.79
2019-01-04T07:21:09.125Z,103187.53
2019-01-04T07:23:39.754Z,103193.22
2019-01-04T07:26:10.281Z,103185.13
2019-01-04T07:28:40.675Z,103179.72
2019-01-04T07:31:10.963Z,103182.03
2019-01-04T07:33:41.594Z,103184.61
2019-01-04T07:36:11.984Z,103202.05
2019-01-04T07:38:42.352Z,103189.35
2019-01-04T07:41:31.947Z,103186.88
2019-01-04T07:44:13.837Z,103192.91
2019-01-04T07:47:22.264Z,103187.70
2019-01-04T07:50:04.866Z,103200.50
2019-01-04T07:52:54.673Z,103203.03
2019-01-04T07:55:25.190Z,103199.98
2019-01-04T07:57:55.833Z,103210.81
2019-01-04T08:00:26.575Z,103204.91
2019-01-04T08:03:01.741Z,103195.66
2019-01-04T08:05:32.201Z,103201.62
2019-01-04T08:08:02.935Z,103195.31
2019-01-04T08:10:33.394Z,103193.09
2019-01-04T08:13:04.339Z,103205.44
2019-01-04T08:15:34.720Z,103207.20
2019-01-04T08:18:05.106Z,103213.87
2019-01-04T08:20:35.426Z,103200.41
2019-01-04T08:23:06.200Z,103199.22
2019-01-04T08:25:36.719Z,103202.67
2019-01-04T08:28:26.301Z,103201.97
2019-01-04T08:34:30.034Z,103202.58
2019-01-04T08:37:12.524Z,103205.20
2019-01-04T08:40:02.458Z,103204.08
2019-01-04T08:42:44.332Z,103204.48
2019-01-04T08:45:33.937Z,103199.86
2019-01-04T08:48:16.316Z,103195.80
2019-01-04T08:51:05.996Z,103195.93
2019-01-04T08:53:55.622Z,103192.23
2019-01-04T08:56:45.148Z,103197.07
2019-01-04T08:59:27.437Z,103190.88
2019-01-04T09:02:16.982Z,103190.22
2019-01-04T09:04:59.464Z,103194.09
2019-01-04T09:07:49.007Z,103192.80
2019-01-04T09:10:31.252Z,103185.80
2019-01-04T09:13:20.799Z,103182.78
2019-01-04T09:16:02.870Z,103175.98
2019-01-04T09:21:29.820Z,103172.23
2019-01-04T09:24:00.215Z,103164.98
2019-01-04T09:26:30.720Z,103170.27
2019-01-04T09:29:01.492Z,103167.69
2019-01-04T09:31:31.862Z,103164.98
2019-01-04T09:34:02.505Z,103166.44
2019-01-04T09:36:33.229Z,103168.37
2019-01-04T09:39:04.218Z,103169.34
2019-01-04T09:41:49.574Z,103164.70
2019-01-04T09:44:19.943Z,103159.26
2019-01-04T09:46:50.303Z,103160.14
2019-01-04T09:49:20.602Z,103157.12
2019-01-04T09:51:51.058Z,103161.06
2019-01-04T09:54:21.449Z,103148.01
2019-01-04T09:56:51.831Z,103146.31
2019-01-04T09:59:22.409Z,103138.27
2019-01-04T10:01:52.847Z,103134.28
2019-01-04T10:04:23.232Z,103131.50
2019-01-04T10:06:53.624Z,103129.88
2019-01-04T10:09:23.939Z,103125.89
2019-01-04T10:11:54.753Z,103129.03
2019-01-04T10:14:25.396Z,103125.89
2019-01-04T10:16:55.989Z,103122.55
2019-01-04T10:19:27.120Z,103119.81
2019-01-04T10:21:57.804Z,103112.27
2019-01-04T10:24:28.613Z,103109.69
2019-01-04T10:26:59.223Z,103104.50
2019-01-04T10:29:30.019Z,103096.44
2019-01-04T10:32:00.483Z,103099.68
2019-01-04T10:34:30.867Z,103087.70
2019-01-04T10:37:01.536Z,103076.95
2019-01-04T10:39:32.138Z,103068.95
2019-01-04T10:42:02.440Z,103072.38
2019-01-04T10:44:33.065Z,103062.48
2019-01-04T10:47:03.584Z,103061.59
2019-01-04T10:49:34.102Z,103063.70
2019-01-04T10:52:04.552Z,103061.70
2019-01-04T10:54:35.030Z,103057.45
2019-01-04T10:57:05.812Z,103047.91
2019-01-04T10:59:36.604Z,103050.77
2019-01-04T11:02:07.311Z,103054.13
2019-01-04T11:04:59.288Z,103041.92
2019-01-04T11:10:49.689Z,103044.44
2019-01-04T11:16:40.717Z,103038.77
2019-01-04T11:19:30.233Z,103030.88
2019-01-04T11:22:31.791Z,103032.17
2019-01-04T11:25:33.168Z,103030.25
2019-01-04T11:32:44.283Z,103026.34
2019-01-04T11:36:05.902Z,103020.91
2019-01-04T11:39:37.275Z,103017.03
2019-01-04T11:43:09.744Z,103030.67
2019-01-04T11:46:29.646Z,103030.88
2019-01-04T11:49:48.407Z,103024.91
2019-01-04T11:52:33.817Z,103016.70
2019-01-04T11:55:04.791Z,103016.29
2019-01-04T11:57:35.342Z,103009.41
2019-01-04T12:00:08.091Z,103014.62
2019-01-04T12:02:38.692Z,103014.26
2019-01-04T12:05:10.909Z,103000.07
2019-01-04T12:07:41.713Z,103001.43
2019-01-04T12:10:12.227Z,102997.62
2019-01-04T12:12:42.739Z,102992.81
2019-01-04T12:15:13.366Z,102991.63
2019-01-04T12:17:43.968Z,102986.02
2019-01-04T12:20:14.493Z,102978.14
2019-01-04T12:22:45.009Z,102967.42
2019-01-04T12:25:15.540Z,102961.07
2019-01-04T12:27:46.438Z,102954.63
2019-01-04T12:30:16.953Z,102953.61
2019-01-04T12:32:47.577Z,102950.14
2019-01-04T12:35:17.932Z,102956.22
2019-01-04T12:37:48.321Z,102962.63
2019-01-04T12:40:18.756Z,102980.31
2019-01-04T12:42:49.029Z,102981.09
2019-01-04T12:45:19.479Z,102972.07
2019-01-04T12:47:49.842Z,102982.17
2019-01-04T12:50:20.210Z,102980.14
2019-01-04T12:52:51.297Z,102980.59
2019-01-04T12:55:21.764Z,102973.46
2019-01-04T12:57:52.402Z,102967.69
2019-01-04T13:00:23.187Z,102966.70
2019-01-04T13:02:53.577Z,102960.59
2019-01-04T13:05:24.192Z,102957.16
2019-01-04T13:07:54.944Z,102953.09
2019-01-04T13:10:25.521Z,102947.53
2019-01-04T13:12:55.762Z,102944.67
2019-01-04T13:15:26.191Z,102941.52
2019-01-04T13:17:56.732Z,102931.07
2019-01-04T13:20:27.260Z,102941.89
2019-01-04T13:22:57.527Z,102934.91
2019-01-04T13:25:27.896Z,102941.05
2019-01-04T13:27:58.670Z,102940.50
2019-01-04T13:30:29.178Z,102929.57
2019-01-04T13:32:59.612Z,102932.28
2019-01-04T13:35:30.107Z,102927.27
2019-01-04T13:38:00.725Z,102933.17
2019-01-04T13:40:31.429Z,102938.73
2019-01-04T13:43:01.831Z,102936.83
2019-01-04T13:45:32.271Z,102928.75
2019-01-04T13:48:02.665Z,102925.80
2019-01-04T13:50:32.977Z,102921.29
2019-01-04T13:53:03.339Z,102923.39
2019-01-04T13:55:34.102Z,102928.11
2019-01-04T13:58:05.628Z,102922.03
2019-01-04T14:00:36.081Z,102924.03
2019-01-04T14:03:06.768Z,102915.86
2019-01-04T14:05:37.238Z,102919.25
2019-01-04T14:08:07.990Z,102915.86
2019-01-04T14:10:38.348Z,102916.66
2019-01-04T14:13:09.384Z,102914.05
2019-01-04T14:15:40.245Z,102908.13
2019-01-04T14:18:10.786Z,102901.16
2019-01-04T14:20:41.398Z,102898.45
2019-01-04T14:23:11.815Z,102895.91
2019-01-04T14:25:42.334Z,102902.62
2019-01-04T14:28:13.145Z,102891.80
2019-01-04T14:30:43.526Z,102902.03
2019-01-04T14:33:14.022Z,102904.50
2019-01-04T14:35:44.497Z,102897.76
2019-01-04T14:38:14.916Z,102900.64
2019-01-04T14:40:45.280Z,102902.33
2019-01-04T14:43:15.919Z,102897.55
2019-01-04T14:45:46.287Z,102895.75
2019-01-04T14:48:16.760Z,102894.89
2019-01-04T14:50:47.211Z,102892.22
2019-01-04T14:53:17.677Z,102896.52
2019-01-04T14:55:47.966Z,102897.33
2019-01-04T14:58:18.420Z,102904.47
2019-01-04T15:00:48.789Z,102900.98
2019-01-04T15:03:19.160Z,102903.52
2019-01-04T15:05:50.525Z,102897.48
2019-01-04T15:08:20.949Z,102898.30
2019-01-04T15:10:51.255Z,102889.57
2019-01-04T15:13:21.949Z,102884.94
2019-01-04T15:15:52.373Z,102878.13
2019-01-04T15:18:22.751Z,102878.05
2019-01-04T15:20:53.224Z,102878.90
2019-01-04T15:23:23.629Z,102883.53
2019-01-04T15:25:53.966Z,102883.50
2019-01-04T15:28:24.278Z,102888.28
2019-01-04T15:30:54.634Z,102892.59
2019-01-04T15:33:24.992Z,102896.38
2019-01-04T15:35:55.700Z,102888.43
2019-01-04T15:38:25.996Z,102887.11
2019-01-04T15:40:56.328Z,102879.27
2019-01-04T15:43:26.709Z,102886.59
2019-01-04T15:45:56.993Z,102891.37
2019-01-04T15:48:27.268Z,102889.05
2019-01-04T15:50:57.654Z,102882.36
2019-01-04T15:53:28.100Z,102886.22
2019-01-04T15:55:58.504Z,102900.20
2019-01-04T15:58:28.742Z,102895.13
2019-01-04T16:00:59.223Z,102888.54
2019-01-04T16:03:30.148Z,102888.13
2019-01-04T16:06:00.613Z,102876.14
2019-01-04T16:08:31.159Z,102863.92
2019-01-04T16:11:01.846Z,102863.45
2019-01-04T16:13:32.145Z,102867.23
2019-01-04T16:16:02.780Z,102862.78
2019-01-04T16:18:33.379Z,102856.27
2019-01-04T16:21:03.939Z,102859.25
2019-01-04T16:23:34.836Z,102864.40
2019-01-04T16:26:05.263Z,102876.05
2019-01-04T16:28:35.940Z,102874.84
2019-01-04T16:31:06.584Z,102868.41
2019-01-04T16:33:37.031Z,102863.38
2019-01-04T16:36:07.507Z,102871.83
2019-01-04T16:38:37.780Z,102862.70
2019-01-04T16:41:08.217Z,102861.53
2019-01-04T16:43:38.693Z,102864.69
2019-01-04T16:46:09.447Z,102869.47
2019-01-04T16:48:40.137Z,102861.78
2019-01-04T16:51:10.779Z,102846.95
2019-01-04T16:53:41.214Z,102834.09
2019-01-04T16:56:13.821Z,102825.16
2019-01-04T16:58:44.384Z,102821.17
2019-01-04T17:01:14.657Z,102817.72
2019-01-04T17:03:45.357Z,102817.53
2019-01-04T17:06:15.869Z,102826.47
2019-01-04T17:08:46.262Z,102826.98
2019-01-04T17:11:16.815Z,102818.19
2019-01-04T17:13:47.809Z,102810.84
2019-01-04T17:16:18.576Z,102802.83
2019-01-04T17:18:49.171Z,102813.77
2019-01-04T17:21:19.535Z,102820.25
2019-01-04T17:23:50.138Z,102816.34
2019-01-04T17:26:20.621Z,102822.74
2019-01-04T17:28:50.991Z,102816.48
2019-01-04T17:31:24.369Z,102804.50
2019-01-04T17:33:54.806Z,102806.31
2019-01-04T17:36:25.191Z,102807.16
2019-01-04T17:38:55.401Z,102810.63
2019-01-04T17:41:25.767Z,102798.69
2019-01-04T17:43:56.510Z,102803.95
2019-01-04T17:46:27.433Z,102806.56
2019-01-04T17:48:58.118Z,102804.47
2019-01-04T17:51:28.697Z,102785.53
2019-01-04T17:53:59.048Z,102790.16
2019-01-04T17:56:29.468Z,102796.23
2019-01-04T17:58:59.919Z,102790.05
2019-01-04T18:01:30.270Z,102792.06
2019-01-04T18:04:00.596Z,102798.69
2019-01-04T18:06:31.216Z,102792.63
2019-01-04T18:09:02.153Z,102802.26
2019-01-04T18:11:33.344Z,102799.69
2019-01-04T18:14:03.864Z,102794.42
2019-01-04T18:16:34.594Z,102804.42
2019-01-04T18:19:04.980Z,102787.59
2019-01-04T18:21:35.176Z,102785.45
2019-01-04T18:24:05.911Z,102793.47
2019-01-04T18:26:36.292Z,102799.20
2019-01-04T18:29:06.567Z,102807.17
2019-01-04T18:31:37.186Z,102805.27
2019-01-04T18:34:07.535Z,102799.77
2019-01-04T18:36:37.982Z,102795.05
2019-01-04T18:39:08.790Z,102800.13
2019-01-04T18:41:39.136Z,102799.20
2019-01-04T18:44:09.505Z,102810.13
2019-01-04T18:46:39.959Z,102807.55
2019-01-04T18:49:10.176Z,102808.33
2019-01-04T18:51:40.618Z,102812.22
2019-01-04T18:54:11.003Z,102810.78
2019-01-04T18:56:43.578Z,102807.00
2019-01-04T18:59:13.890Z,102807.92
2019-01-04T19:01:44.594Z,102810.38
2019-01-04T19:04:14.971Z,102817.89
2019-01-04T19:06:45.564Z,102820.50
2019-01-04T19:09:16.284Z,102814.28
2019-01-04T19:11:49.187Z,102814.64
2019-01-04T19:14:19.468Z,102818.14
2019-01-04T19:16:49.818Z,102819.02
2019-01-04T19:19:20.471Z,102815.56
2019-01-04T19:21:51.057Z,102817.22
2019-01-04T19:24:32.869Z,102808.28
2019-01-04T19:27:22.483Z,102812.63
2019-01-04T19:30:04.836Z,102814.03
2019-01-04T19:32:47.623Z,102819.50
2019-01-04T19:35:37.506Z,102813.88
2019-01-04T19:38:19.798Z,102812.70
2019-01-04T19:41:09.619Z,102811.27
2019-01-04T19:43:51.839Z,102810.89
2019-01-04T19:46:41.456Z,102817.38
2019-01-04T19:49:23.771Z,102811.56
2019-01-04T19:51:54.512Z,102816.48
2019-01-04T19:54:24.837Z,102817.63
2019-01-04T19:56:55.427Z,102811.70
2019-01-04T19:59:25.925Z,102811.70
2019-01-04T20:01:56.256Z,102804.50
2019-01-04T20:04:27.496Z,102811.30
2019-01-04T20:08:01.727Z,102807.70
2019-01-04T20:11:27.628Z,102808.11
2019-01-04T20:14:40.618Z,102798.70
2019-01-04T20:17:52.557Z,102802.56
2019-01-04T20:20:53.976Z,102796.72
2019-01-04T20:23:55.529Z,102795.91
2019-01-04T20:26:43.556Z,102794.07
2019-01-04T20:29:31.446Z,102793.34
2019-01-04T20:32:40.290Z,102790.73
2019-01-04T20:35:41.788Z,102798.08
2019-01-04T20:38:50.763Z,102794.15
2019-01-04T20:41:57.588Z,102792.09
2019-01-04T20:45:06.400Z,102803.74
2019-01-04T20:47:56.032Z,102790.77
2019-01-04T20:51:04.830Z,102797.34
2019-01-04T20:54:06.411Z,102797.50
2019-01-04T20:57:08.268Z,102795.25
2019-01-04T20:59:56.422Z,102796.77
2019-01-04T21:02:44.873Z,102786.39
2019-01-04T21:05:29.750Z,102783.63
2019-01-04T21:08:18.035Z,102788.52
2019-01-04T21:11:16.423Z,102786.06
2019-01-04T21:14:23.928Z,102785.51
2019-01-04T21:17:15.263Z,102787.34
2019-01-04T21:20:03.571Z,102785.58
2019-01-04T21:23:02.278Z,102791.21
2019-01-04T21:25:50.096Z,102789.59
2019-01-04T21:28:39.972Z,102781.69
2019-01-04T21:31:27.939Z,102788.23
2019-01-04T21:34:32.468Z,102782.67
2019-01-04T21:37:26.354Z,102785.29
2019-01-04T21:40:14.442Z,102779.52
2019-01-04T21:43:02.354Z,102774.52
2019-01-04T21:45:49.955Z,102779.52
2019-01-04T21:48:57.314Z,102767.41
2019-01-04T21:51:46.733Z,102764.33
2019-01-04T21:54:44.928Z,102768.73
2019-01-04T21:57:32.687Z,102766.71
2019-01-04T22:00:25.119Z,102756.85
2019-01-04T22:03:13.104Z,102753.91
2019-01-04T22:06:11.563Z,102750.82
2019-01-04T22:09:07.179Z,102749.94
2019-01-04T22:11:50.357Z,102746.96
2019-01-04T22:14:45.373Z,102742.69
2019-01-04T22:17:34.888Z,102738.09
2019-01-04T22:20:23.578Z,102745.30
2019-01-04T22:23:22.171Z,102740.40
2019-01-04T22:26:14.223Z,102740.84
2019-01-04T22:29:15.580Z,102737.96
2019-01-04T22:32:04.759Z,102721.86
2019-01-04T22:34:49.362Z,102723.16
2019-01-04T22:37:38.677Z,102728.95
2019-01-04T22:40:27.997Z,102726.00
2019-01-04T22:43:38.543Z,102731.97
2019-01-04T22:46:27.587Z,102726.10
2019-01-04T22:49:11.816Z,102720.61
2019-01-04T22:52:03.735Z,102725.42
2019-01-04T22:54:56.249Z,102723.33
2019-01-04T22:57:44.072Z,102715.97
2019-01-04T23:00:44.709Z,102720.72
2019-01-04T23:03:32.518Z,102711.73
2019-01-04T23:06:24.803Z,102715.26
2019-01-04T23:09:17.565Z,102708.10
2019-01-04T23:12:06.898Z,102706.34
2019-01-04T23:14:59.035Z,102713.19
2019-01-04T23:17:54.052Z,102705.97
2019-01-04T23:20:49.483Z,102700.44
2019-01-04T23:23:42.591Z,102707.86
2019-01-04T23:26:30.656Z,102701.32
2019-01-04T23:29:37.689Z,102701.29
2019-01-04T23:32:27.055Z,102698.30
2019-01-04T23:35:22.568Z,102704.23
2019-01-04T23:38:11.405Z,102693.49
2019-01-04T23:41:15.523Z,102691.05
2019-01-04T23:44:22.960Z,102684.67
2019-01-04T23:47:23.906Z,102679.62
2019-01-04T23:50:19.091Z,102684.77
2019-01-04T23:53:06.869Z,102686.91
2019-01-04T23:55:52.821Z,102683.14
2019-01-04T23:58:41.700Z,102679.65
